Brunswick, ME (04011)

8:50 AM EST on January 22, 2017 (GMT -0500)
Jordan Acres | | Change Station
Active Advisory: Gale Warning

Elev 39 ft 43.92 °N, 69.95 °W | Updated 4 minutes ago

Overcast
Overcast
35.4 °F
Feels Like 35 °F
N
0.0
Wind Variable Wind from ESE
Gusts 0.0 mph

Today
High -- | Low -- °F
--% Chance of Precip.
Yesterday
High -- | Low -- °F
Precip. -- in
Pressure 29.87 in
Visibility 10.0 miles
Clouds Overcast 1800 ft
Windchill 35 °F
Dew Point 32 °F
Humidity 88%
Rainfall 0.00 in
Snow Depth Not available.
7:06 AM 4:37 PM
Waning Crescent, 26% visible
METAR KIWI 221253Z AUTO 00000KT 10SM OVC018 02/M01 A2987 RMK AO2 SLP114 T00221006
Pressure 29.87 in
Visibility 10.0 miles
Clouds Overcast 1800 ft
Windchill 35 °F
Dew Point 32 °F
Humidity 88%
Rainfall 0.00 in
Snow Depth Not available.
7:06 AM 4:37 PM
Waning Crescent, 26% visible
METAR KIWI 221253Z AUTO 00000KT 10SM OVC018 02/M01 A2987 RMK AO2 SLP114 T00221006

Get Your Daily Forecast Email!

Thanks for signing up!

Be on the lookout for a verification email in your inbox.

You'll start receiving the daily forecast at 8 AM.

×

10-Day Weather Forecast

Almanac

Astronomy

Jan. 22, 2017 Rise Set
Actual Time
Civil Twilight
Nautical Twilight
Astronomical Twilight
Moon
Length of Visible Light
Length of Day
Tomorrow will be .
, % of the Moon is Illuminated

Today's Extremes

State Highs State Lows

Community

WunderPhotos

Upload Photos

1,962,540 photos uploaded!

WunderBlog® & News

Nearby

Air Quality

  Air Quality AQ Index Pollutant
Not available.

Snow Depth

Station Depth Elevation

Earthquake Activity

City Distance Mag. Time & Date
Minimum magnitude displayed is 2.5.

Coastal Water Temperatures

Place Temperature

Stations

Nearby Weather Stations

Station Location Temp. Windchill Dew Point Humidity Wind Precip. Elev Updated Type
                   

Watches & Warnings

Gale Warning
Issued: 2:55 AM EST Jan. 22, 2017 – National Weather Service

... Gale Warning remains in effect from 3 PM Monday to 11 am EST
Tuesday...

* winds... northeast 20 to 30 kt with gusts up to 45 kt.

* Seas... 4 to 7 feet.

Precautionary/preparedness actions...

A Gale Warning means winds of 34 to 47 knots are imminent or
occuring. Operating a vessel in gale conditions requires
experience and properly equipped vessels. It is highly
recommended that mariners without the proper experience seek safe
Harbor prior to the onset of gale conditions.